Time;durP1;ratioP1;P1;durP2;ratioP2;P2;SDS_P1;SDS_P2;PMS_P1;PMS_P2;Temp;Humidity;BMP_temperature;BMP_pressure;BME280_temperature;BME280_humidity;BME280_pressure;Samples;Min_cycle;Max_cycle;Signal;HPM_P1;HPM_P2
2021/11/02 00:01:39;;;;;;;7.15;2.33;;;;;;;5.34;100.00;99922.47;5034093;28;20040;-82
2021/11/02 00:04:05;;;;;;;8.27;2.88;;;;;;;5.34;100.00;99932.03;5004108;28;20025;-82
2021/11/02 00:06:31;;;;;;;8.10;2.67;;;;;;;5.30;100.00;99934.09;5022610;28;20700;-81
2021/11/02 00:08:57;;;;;;;14.63;3.13;;;;;;;5.22;100.00;99926.94;5036645;28;20033;-82
2021/11/02 00:11:23;;;;;;;6.70;2.70;;;;;;;5.19;100.00;99924.59;5009226;28;20035;-82
2021/11/02 00:13:52;;;;;;;10.55;3.00;;;;;;;5.19;100.00;99927.19;5035826;28;20094;-83
2021/11/02 00:16:21;;;;;;;8.60;2.40;;;;;;;5.12;100.00;99923.47;5026231;28;20040;-81
2021/11/02 00:18:57;;;;;;;8.82;2.75;;;;;;;5.14;100.00;99933.75;5016646;28;20044;-82
2021/11/02 00:21:24;;;;;;;4.75;2.00;;;;;;;5.08;100.00;99927.28;5036030;28;20040;-82
2021/11/02 00:23:58;;;;;;;4.57;2.22;;;;;;;5.05;100.00;99927.56;5021916;28;20041;-82
2021/11/02 00:26:24;;;;;;;8.90;2.95;;;;;;;5.08;100.00;99924.69;5015079;28;20044;-83
2021/11/02 00:28:50;;;;;;;8.73;2.42;;;;;;;5.11;100.00;99926.22;5013353;28;20068;-84
2021/11/02 00:31:16;;;;;;;6.22;2.55;;;;;;;5.06;100.00;99921.41;5020114;28;20036;-82
2021/11/02 00:33:44;;;;;;;4.65;2.38;;;;;;;5.15;100.00;99923.22;5021359;28;20036;-82
2021/11/02 00:36:13;;;;;;;8.45;3.28;;;;;;;5.22;100.00;99918.34;5035769;28;20025;-82
2021/11/02 00:38:39;;;;;;;12.02;3.03;;;;;;;5.28;100.00;99922.19;5018209;28;20037;-82
2021/11/02 00:41:05;;;;;;;6.78;2.65;;;;;;;5.24;100.00;99908.63;5035636;28;20040;-81
2021/11/02 00:43:32;;;;;;;11.50;2.67;;;;;;;5.24;100.00;99916.41;5038959;28;20128;-80
2021/11/02 00:45:58;;;;;;;9.63;3.20;;;;;;;5.25;100.00;99915.44;5017054;28;20036;-82
2021/11/02 00:48:24;;;;;;;8.85;2.70;;;;;;;5.19;100.00;99911.59;5038112;28;20036;-82
2021/11/02 00:50:51;;;;;;;6.22;2.80;;;;;;;5.12;100.00;99913.06;5021102;28;20784;-82
2021/11/02 00:53:17;;;;;;;11.00;2.67;;;;;;;5.08;100.00;99916.91;5014494;28;20033;-82
2021/11/02 00:55:43;;;;;;;14.23;2.63;;;;;;;5.02;100.00;99915.66;5044407;28;20040;-81
2021/11/02 00:58:08;;;;;;;4.88;2.20;;;;;;;4.97;100.00;99909.19;5037283;28;20110;-83
2021/11/02 01:00:36;;;;;;;8.40;2.35;;;;;;;4.90;100.00;99902.88;5029686;28;20147;-82
2021/11/02 01:03:03;;;;;;;12.02;3.15;;;;;;;4.90;100.00;99903.72;5032000;28;20052;-85
2021/11/02 01:05:31;;;;;;;7.40;2.72;;;;;;;4.89;100.00;99907.25;5020073;28;20119;-82
2021/11/02 01:07:58;;;;;;;7.18;2.28;;;;;;;4.85;100.00;99898.06;5017008;28;20048;-82
2021/11/02 01:10:24;;;;;;;8.82;2.75;;;;;;;4.81;100.00;99900.09;5022061;28;20090;-82
2021/11/02 01:12:51;;;;;;;7.82;2.72;;;;;;;4.77;100.00;99905.72;5017514;28;20075;-82
2021/11/02 01:15:21;;;;;;;6.45;2.38;;;;;;;4.71;100.00;99901.84;5037380;28;20033;-82
2021/11/02 01:17:48;;;;;;;7.75;2.78;;;;;;;4.64;100.00;99905.91;5036286;28;20034;-82
2021/11/02 01:20:15;;;;;;;5.47;2.40;;;;;;;4.59;100.00;99903.69;5005391;28;20069;-82
2021/11/02 01:22:42;;;;;;;13.63;3.03;;;;;;;4.55;100.00;99896.28;5023602;28;20037;-84
2021/11/02 01:25:17;;;;;;;9.30;2.88;;;;;;;4.53;100.00;99891.22;5042488;28;20091;-83
2021/11/02 01:27:43;;;;;;;10.52;2.60;;;;;;;4.56;100.00;99892.72;5034570;28;20037;-83
2021/11/02 01:30:14;;;;;;;5.32;2.55;;;;;;;4.52;100.00;99883.53;5031036;28;20025;-84
2021/11/02 01:32:42;;;;;;;7.90;3.10;;;;;;;4.49;100.00;99880.25;5027138;28;20036;-82
2021/11/02 01:35:08;;;;;;;6.93;3.17;;;;;;;4.52;100.00;99888.75;5023560;28;20120;-84
2021/11/02 01:37:40;;;;;;;12.82;2.80;;;;;;;4.46;100.00;99887.47;5040539;28;20059;-83
2021/11/02 01:40:10;;;;;;;11.43;3.10;;;;;;;4.49;100.00;99893.25;5006687;28;20052;-83
2021/11/02 01:42:37;;;;;;;9.35;3.40;;;;;;;4.47;100.00;99889.94;5056088;28;20476;-84
2021/11/02 01:45:07;;;;;;;6.43;2.53;;;;;;;4.41;100.00;99882.69;5030266;28;20127;-82
2021/11/02 01:47:34;;;;;;;10.02;3.08;;;;;;;4.40;100.00;99885.41;5005623;28;20037;-82
2021/11/02 01:50:03;;;;;;;11.65;3.05;;;;;;;4.40;100.00;99888.00;5052188;28;20139;-83
2021/11/02 01:52:33;;;;;;;11.35;2.92;;;;;;;4.36;100.00;99890.03;5006505;28;20503;-82
2021/11/02 01:55:00;;;;;;;8.40;2.80;;;;;;;4.37;100.00;99883.88;5023497;28;20053;-83
2021/11/02 01:57:32;;;;;;;9.63;3.20;;;;;;;4.35;100.00;99890.16;5023862;28;20040;-83
2021/11/02 01:59:58;;;;;;;8.73;3.00;;;;;;;4.30;100.00;99890.53;5032336;28;20037;-82
2021/11/02 02:02:33;;;;;;;9.93;3.13;;;;;;;4.29;100.00;99894.06;5022711;28;20079;-83
2021/11/02 02:05:05;;;;;;;;;;;;;;;4.29;100.00;99894.91;5040531;28;20123;-84
2021/11/02 02:07:52;;;;;;;9.57;3.53;;;;;;;4.27;100.00;99893.38;5022710;28;20018;-83
2021/11/02 02:10:27;;;;;;;11.90;3.78;;;;;;;4.25;100.00;99897.88;5040452;28;20040;-82
2021/11/02 02:13:16;;;;;;;12.00;3.95;;;;;;;4.24;100.00;99891.88;5052453;28;20041;-82
2021/11/02 02:15:50;;;;;;;10.68;3.42;;;;;;;4.25;100.00;99895.28;5038584;28;20037;-83
2021/11/02 02:18:32;;;;;;;9.63;3.85;;;;;;;4.23;100.00;99898.00;5035122;28;20072;-83
2021/11/02 02:21:16;;;;;;;12.13;3.85;;;;;;;4.23;100.00;99892.81;5038474;28;20032;-84
2021/11/02 02:23:51;;;;;;;10.27;3.88;;;;;;;4.23;100.00;99892.81;5040055;28;20056;-83
2021/11/02 02:26:45;;;;;;;11.73;3.53;;;;;;;4.24;100.00;99898.84;5023421;28;20577;-83
2021/11/02 02:29:15;;;;;;;7.18;3.45;;;;;;;4.20;100.00;99887.88;5040189;28;20037;-83
2021/11/02 02:31:44;;;;;;;9.48;3.30;;;;;;;4.20;100.00;99894.81;5014080;28;20048;-82
2021/11/02 02:34:13;;;;;;;11.50;3.92;;;;;;;4.21;100.00;99893.88;5012023;28;20055;-84
2021/11/02 02:36:48;;;;;;;13.02;4.50;;;;;;;4.20;100.00;99885.28;5021602;28;20037;-83
2021/11/02 02:39:18;;;;;;;10.45;3.55;;;;;;;4.22;100.00;99883.38;5022994;28;20029;-83
2021/11/02 02:42:07;;;;;;;11.27;4.53;;;;;;;4.21;100.00;99880.91;5038899;28;20067;-83
2021/11/02 02:44:36;;;;;;;10.95;3.72;;;;;;;4.22;100.00;99882.53;5031143;28;20037;-83
2021/11/02 02:47:03;;;;;;;9.80;3.92;;;;;;;4.24;100.00;99885.84;5038658;28;20083;-83
2021/11/02 02:49:30;;;;;;;11.60;3.70;;;;;;;4.25;100.00;99887.50;5011734;28;20705;-84
2021/11/02 02:51:56;;;;;;;12.90;4.22;;;;;;;4.29;100.00;99884.53;5013503;28;20128;-82
2021/11/02 02:54:24;;;;;;;9.23;3.75;;;;;;;4.35;100.00;99878.00;5021283;28;20056;-82
2021/11/02 02:56:54;;;;;;;10.27;3.53;;;;;;;4.32;100.00;99877.44;5036925;28;20045;-81
2021/11/02 02:59:22;;;;;;;8.35;3.72;;;;;;;4.25;100.00;99879.69;5036445;28;20048;-81
2021/11/02 03:01:51;;;;;;;15.45;3.72;;;;;;;4.18;100.00;99875.97;5031969;28;20037;-82
2021/11/02 03:04:24;;;;;;;5.65;3.25;;;;;;;4.20;100.00;99893.06;5009540;28;20041;-83
2021/11/02 03:06:52;;;;;;;6.22;3.35;;;;;;;4.21;100.00;99886.91;5016022;28;20049;-82
2021/11/02 03:09:19;;;;;;;10.43;3.60;;;;;;;4.20;100.00;99887.03;5039741;28;20045;-81
2021/11/02 03:11:45;;;;;;;10.00;3.67;;;;;;;4.19;100.00;99888.00;5009820;28;20033;-81
2021/11/02 03:14:18;;;;;;;9.48;3.63;;;;;;;4.15;100.00;99887.44;5035363;28;20047;-81
2021/11/02 03:16:57;;;;;;;5.88;3.65;;;;;;;4.15;100.00;99890.03;5004341;28;20028;-83
2021/11/02 03:44:59;;;;;;;12.40;3.72;;;;;;;3.72;100.00;99877.94;5025071;28;20028;-81
2021/11/02 03:50:38;;;;;;;8.00;3.42;;;;;;;3.69;100.00;99876.44;5015761;28;20041;-81
2021/11/02 03:58:36;;;;;;;11.30;3.70;;;;;;;3.64;100.00;99883.75;5045814;28;20052;-82
2021/11/02 04:01:29;;;;;;;9.07;3.58;;;;;;;3.63;100.00;99876.91;5040376;28;20407;-82
2021/11/02 04:23:45;;;;;;;9.40;3.72;;;;;;;3.53;100.00;99881.19;5045907;28;20420;-81
2021/11/02 04:32:01;;;;;;;5.72;3.33;;;;;;;3.51;100.00;99888.28;5045203;28;20029;-81
2021/11/02 04:43:15;;;;;;;8.18;4.03;;;;;;;3.33;100.00;99874.97;5033590;28;20041;-81
2021/11/02 04:46:06;;;;;;;8.38;4.30;;;;;;;3.29;100.00;99876.97;5042417;28;20079;-81
2021/11/02 04:57:55;;;;;;;8.35;4.47;;;;;;;3.29;100.00;99887.34;5019251;28;20104;-82
2021/11/02 05:08:31;;;;;;;8.95;4.95;;;;;;;3.05;100.00;99876.31;5042817;28;20056;-80
2021/11/02 06:03:42;;;;;;;12.30;5.68;;;;;;;3.17;100.00;99883.16;5033509;28;20098;-81
2021/11/02 06:06:39;;;;;;;9.65;5.13;;;;;;;3.16;100.00;99880.66;5049164;28;20051;-83
2021/11/02 06:09:18;;;;;;;10.52;5.70;;;;;;;3.16;100.00;99884.06;5036334;28;20033;-81
2021/11/02 06:23:36;;;;;;;9.60;5.03;;;;;;;2.97;100.00;99889.88;5049345;28;20076;-80
2021/11/02 06:28:53;;;;;;;11.50;5.95;;;;;;;2.99;100.00;99894.94;5033493;28;20032;-81
2021/11/02 06:45:39;;;;;;;13.02;6.78;;;;;;;2.87;100.00;99904.47;5020411;28;20041;-81
2021/11/02 06:48:06;;;;;;;14.88;6.90;;;;;;;2.91;100.00;99911.06;5037160;28;20041;-82
2021/11/02 07:19:31;;;;;;;14.25;8.25;;;;;;;4.09;100.00;99948.44;5044301;28;20415;-81
2021/11/02 07:25:02;;;;;;;16.30;7.78;;;;;;;4.19;100.00;99956.31;5045979;28;20041;-81
2021/11/02 07:27:54;;;;;;;11.55;6.93;;;;;;;4.22;100.00;99965.59;5047183;28;20045;-82
2021/11/02 08:46:32;;;;;;;12.38;4.93;;;;;;;5.77;100.00;99929.13;5044280;28;20479;-81
2021/11/02 08:48:59;;;;;;;;;;;;;;;5.81;100.00;99937.47;5036418;28;20033;-80
2021/11/02 08:51:25;;;;;;;8.35;5.47;;;;;;;5.87;100.00;99939.53;5019274;28;19974;-81
2021/11/02 08:53:51;;;;;;;11.07;4.93;;;;;;;5.96;100.00;99933.53;5006575;28;20388;-81
2021/11/02 08:56:17;;;;;;;9.77;4.90;;;;;;;6.06;100.00;99930.94;5034784;28;20040;-82
2021/11/02 08:58:48;;;;;;;6.13;4.40;;;;;;;6.16;100.00;99934.38;5033631;28;20033;-81
2021/11/02 09:01:18;;;;;;;8.10;4.80;;;;;;;6.29;100.00;99928.91;5035288;28;20040;-81
2021/11/02 09:03:47;;;;;;;8.10;4.20;;;;;;;6.36;100.00;99924.75;5035882;28;20044;-80
2021/11/02 09:06:15;;;;;;;11.63;4.65;;;;;;;6.43;100.00;99928.44;5042558;28;20037;-80
2021/11/02 09:08:45;;;;;;;9.25;4.78;;;;;;;6.46;100.00;99937.78;5033646;28;20495;-80
2021/11/02 09:11:15;;;;;;;9.40;5.00;;;;;;;6.53;100.00;99933.63;5036163;28;20123;-81
2021/11/02 09:13:47;;;;;;;9.02;4.50;;;;;;;6.61;100.00;99930.31;5030634;28;20565;-80
2021/11/02 09:16:14;;;;;;;13.10;5.22;;;;;;;6.72;100.00;99931.94;5023013;28;20036;-80
2021/11/02 09:18:44;;;;;;;6.90;4.32;;;;;;;6.78;100.00;99929.63;5024910;28;20519;-81
2021/11/02 09:21:10;;;;;;;10.13;4.60;;;;;;;6.92;100.00;99930.13;5033416;28;20065;-80
2021/11/02 09:23:39;;;;;;;10.75;4.32;;;;;;;6.94;100.00;99925.59;5039944;28;20056;-81
2021/11/02 09:26:05;;;;;;;9.20;4.38;;;;;;;7.01;100.00;99924.88;5026043;28;20044;-80
2021/11/02 09:28:32;;;;;;;9.85;4.68;;;;;;;7.09;100.00;99916.31;5044440;28;20029;-80
2021/11/02 09:30:58;;;;;;;11.07;4.68;;;;;;;7.22;100.00;99916.00;5001730;28;20032;-79
2021/11/02 09:33:24;;;;;;;11.32;4.30;;;;;;;7.27;100.00;99915.53;5037282;28;20075;-80
2021/11/02 09:36:01;;;;;;;13.68;4.78;;;;;;;7.32;100.00;99921.97;5049607;28;20033;-78
2021/11/02 09:38:42;;;;;;;8.70;4.38;;;;;;;7.46;100.00;99912.84;5020081;28;20061;-80
2021/11/02 09:41:30;;;;;;;10.63;4.65;;;;;;;7.52;100.00;99914.84;5039994;28;20453;-79
2021/11/02 09:44:11;;;;;;;15.10;4.90;;;;;;;7.60;100.00;99916.72;5041904;28;20044;-80
2021/11/02 09:46:59;;;;;;;11.43;4.60;;;;;;;7.73;100.00;99908.53;5040721;28;20047;-81
2021/11/02 09:49:58;;;;;;;10.40;4.55;;;;;;;7.97;100.00;99921.81;5036753;28;20171;-79
2021/11/02 09:52:46;;;;;;;10.50;4.82;;;;;;;8.04;100.00;99913.38;5032075;28;20052;-79
2021/11/02 09:55:25;;;;;;;10.57;4.43;;;;;;;8.13;100.00;99915.09;5033260;28;20420;-79
2021/11/02 09:58:11;;;;;;;10.68;4.40;;;;;;;8.22;100.00;99929.06;5037247;28;20037;-79
2021/11/02 10:01:02;;;;;;;14.57;4.47;;;;;;;8.31;100.00;99923.75;5017165;28;20119;-79
2021/11/02 10:03:50;;;;;;;10.23;4.15;;;;;;;8.34;100.00;99923.44;5003258;28;20128;-79
2021/11/02 10:06:41;;;;;;;12.93;4.50;;;;;;;8.46;100.00;99924.03;5017930;28;20033;-80
2021/11/02 10:09:50;;;;;;;10.48;4.25;;;;;;;8.89;100.00;99919.72;5042469;28;20522;-79
2021/11/02 10:12:17;;;;;;;11.40;4.75;;;;;;;8.88;100.00;99919.88;5014885;28;20049;-79
2021/11/02 10:15:03;;;;;;;8.95;3.88;;;;;;;8.87;100.00;99916.47;5035001;28;20423;-82
2021/11/02 10:17:45;;;;;;;14.55;4.90;;;;;;;8.84;100.00;99914.16;5030675;28;20061;-80
2021/11/02 10:20:38;;;;;;;10.05;4.55;;;;;;;8.87;100.00;99918.22;5030810;28;20037;-81
2021/11/02 10:23:09;;;;;;;11.38;4.53;;;;;;;8.76;100.00;99911.50;5016081;28;20037;-80
2021/11/02 10:26:00;;;;;;;9.45;4.30;;;;;;;8.75;100.00;99912.44;5020341;28;20040;-81
2021/11/02 10:28:33;;;;;;;12.15;4.35;;;;;;;8.87;100.00;99920.84;5026651;28;20033;-80
2021/11/02 10:31:04;;;;;;;12.57;4.93;;;;;;;8.99;100.00;99911.78;5029558;28;20030;-79
2021/11/02 10:33:35;;;;;;;15.85;4.78;;;;;;;9.06;100.00;99918.03;5029010;28;20037;-80
2021/11/02 10:36:44;;;;;;;12.82;4.22;;;;;;;9.14;100.00;99914.63;5035748;28;20064;-81
2021/11/02 10:39:12;;;;;;;7.95;4.18;;;;;;;9.10;100.00;99915.91;5020351;28;20033;-82
2021/11/02 10:42:08;;;;;;;13.45;4.25;;;;;;;8.98;100.00;99915.34;5042411;28;20045;-81
2021/11/02 10:44:41;;;;;;;10.65;4.40;;;;;;;9.03;100.00;99907.84;5035275;28;20041;-78
2021/11/02 10:47:21;;;;;;;11.35;4.53;;;;;;;9.14;100.00;99914.63;5034138;28;20036;-79
2021/11/02 10:49:54;;;;;;;12.35;5.18;;;;;;;9.17;100.00;99906.44;5015507;28;20051;-81
2021/11/02 10:52:26;;;;;;;16.23;4.70;;;;;;;9.24;100.00;99902.22;5032192;28;20128;-83
2021/11/02 10:55:23;;;;;;;17.45;4.88;;;;;;;9.38;100.00;99911.28;5048043;28;20111;-82
2021/11/02 10:57:54;;;;;;;13.23;4.75;;;;;;;9.59;100.00;99905.59;5049637;28;20029;-79
2021/11/02 11:00:20;;;;;;;13.98;4.57;;;;;;;9.94;100.00;99908.91;5034011;28;20052;-80
2021/11/02 11:02:47;;;;;;;9.55;4.20;;;;;;;10.26;100.00;99905.47;5016727;28;20028;-79
2021/11/02 11:05:15;;;;;;;15.82;4.32;;;;;;;10.41;94.85;99905.66;5012498;28;20042;-79
2021/11/02 11:07:45;;;;;;;9.90;4.13;;;;;;;10.60;96.28;99901.84;5044555;28;20055;-80
2021/11/02 11:10:13;;;;;;;13.45;4.60;;;;;;;10.51;95.51;99906.31;5018005;28;20029;-78
2021/11/02 11:12:48;;;;;;;11.55;4.45;;;;;;;10.45;93.95;99899.13;5030056;28;20052;-81
2021/11/02 11:15:13;;;;;;;9.45;4.00;;;;;;;10.35;93.69;99895.03;5033508;28;20483;-81
2021/11/02 11:17:48;;;;;;;13.32;3.90;;;;;;;10.24;94.77;99894.31;5030068;28;20035;-80
2021/11/02 11:20:15;;;;;;;8.88;4.00;;;;;;;10.32;95.26;99894.38;5045542;28;20082;-82
2021/11/02 11:22:49;;;;;;;12.57;4.60;;;;;;;10.41;95.65;99891.72;5029614;28;20043;-81
2021/11/02 11:25:19;;;;;;;10.52;4.53;;;;;;;10.55;93.60;99893.69;5016987;28;20403;-80
2021/11/02 11:27:48;;;;;;;14.65;4.38;;;;;;;10.53;93.34;99893.03;5029733;28;20510;-81
2021/11/02 11:30:16;;;;;;;9.43;4.45;;;;;;;10.51;93.90;99889.75;5033593;28;20037;-81
2021/11/02 11:32:42;;;;;;;8.68;4.28;;;;;;;10.60;94.04;99893.16;5006425;28;20041;-81
2021/11/02 11:35:09;;;;;;;10.68;4.43;;;;;;;10.68;91.67;99882.66;5016632;28;20510;-81
2021/11/02 11:37:39;;;;;;;14.50;4.10;;;;;;;10.76;91.29;99887.06;5031048;28;20037;-80
2021/11/02 11:40:06;;;;;;;11.32;4.50;;;;;;;10.62;90.14;99878.88;5018332;28;20099;-80
2021/11/02 11:42:33;;;;;;;11.23;3.83;;;;;;;10.69;91.10;99884.28;5031829;28;20747;-81
2021/11/02 11:45:09;;;;;;;11.60;4.03;;;;;;;10.63;92.18;99877.09;5049624;28;20083;-81
2021/11/02 11:47:36;;;;;;;10.63;4.05;;;;;;;10.64;92.10;99876.94;5031945;28;20043;-82
2021/11/02 11:50:19;;;;;;;11.32;4.65;;;;;;;10.71;92.32;99877.06;5003192;28;20036;-82
2021/11/02 11:52:53;;;;;;;11.05;4.38;;;;;;;10.85;90.69;99871.13;5026479;28;20395;-80
2021/11/02 11:55:47;;;;;;;12.13;4.25;;;;;;;10.85;91.14;99881.63;5032374;28;20064;-79
2021/11/02 11:58:20;;;;;;;12.00;4.13;;;;;;;10.85;91.44;99872.94;5014004;28;20053;-81
2021/11/02 12:00:52;;;;;;;12.45;3.88;;;;;;;10.96;91.84;99869.94;5046184;28;20090;-80
2021/11/02 12:03:27;;;;;;;15.48;4.55;;;;;;;11.12;92.44;99878.75;5031126;28;20047;-79
2021/11/02 12:06:21;;;;;;;10.63;3.90;;;;;;;11.11;91.27;99877.91;5033098;28;20041;-81
2021/11/02 12:09:02;;;;;;;8.98;3.70;;;;;;;11.20;90.28;99870.81;5025580;28;20042;-81
2021/11/02 12:11:31;;;;;;;8.60;3.53;;;;;;;11.30;89.38;99868.78;5046296;28;20028;-80
2021/11/02 12:14:04;;;;;;;10.07;4.22;;;;;;;11.51;89.16;99873.44;5029120;28;20040;-80
2021/11/02 12:16:41;;;;;;;10.90;3.60;;;;;;;11.65;89.59;99875.31;5014969;28;20083;-81
2021/11/02 12:19:38;;;;;;;12.70;3.60;;;;;;;11.93;86.79;99869.56;5026923;28;20403;-82
2021/11/02 12:22:12;;;;;;;8.45;3.72;;;;;;;11.87;86.12;99873.69;5045006;28;20087;-81
2021/11/02 12:24:43;;;;;;;9.27;3.67;;;;;;;11.96;87.84;99871.84;5018555;28;20490;-80
2021/11/02 12:27:19;;;;;;;8.85;3.33;;;;;;;12.04;86.22;99870.97;5033783;28;20052;-81
2021/11/02 12:29:49;;;;;;;10.45;3.47;;;;;;;11.66;87.34;99868.28;5014062;28;20083;-83
2021/11/02 12:32:18;;;;;;;8.88;3.45;;;;;;;11.33;88.18;99865.03;5000760;28;20029;-81
2021/11/02 12:34:54;;;;;;;9.85;3.50;;;;;;;11.03;89.63;99868.25;5028855;28;20033;-81
2021/11/02 12:37:22;;;;;;;14.20;3.90;;;;;;;10.68;92.54;99865.13;5025909;28;20136;-81
2021/11/02 12:39:49;;;;;;;10.25;3.13;;;;;;;10.39;95.96;99864.88;5033444;28;20398;-80
2021/11/02 12:42:20;;;;;;;8.45;3.28;;;;;;;10.18;98.00;99876.66;5049061;28;20097;-81
2021/11/02 12:44:49;;;;;;;12.95;3.47;;;;;;;9.98;99.97;99855.19;5018909;28;20040;-82
2021/11/02 12:47:20;;;;;;;9.13;3.33;;;;;;;9.93;100.00;99868.00;5023711;28;20045;-82
2021/11/02 12:49:47;;;;;;;7.93;2.97;;;;;;;9.92;100.00;99869.78;5037343;28;20029;-81
2021/11/02 12:52:15;;;;;;;9.98;3.13;;;;;;;9.93;100.00;99871.41;5036930;28;20120;-82
2021/11/02 12:54:41;;;;;;;12.35;3.63;;;;;;;10.02;100.00;99871.41;5030902;28;20419;-81
2021/11/02 12:57:14;;;;;;;9.07;3.15;;;;;;;10.14;100.00;99868.28;5021115;28;20403;-82
2021/11/02 12:59:46;;;;;;;15.02;3.92;;;;;;;10.25;99.34;99861.91;5038342;28;20037;-81
2021/11/02 13:02:20;;;;;;;8.65;2.83;;;;;;;10.37;97.70;99862.41;5016727;28;20098;-79
2021/11/02 13:04:50;;;;;;;9.48;3.10;;;;;;;10.43;96.59;99864.34;5022624;28;20033;-82
2021/11/02 13:07:16;;;;;;;7.80;3.30;;;;;;;10.45;94.84;99866.81;5024854;28;20159;-81
2021/11/02 13:09:44;;;;;;;9.93;3.60;;;;;;;10.47;94.63;99860.44;5023026;28;20515;-83
2021/11/02 13:12:11;;;;;;;11.90;3.58;;;;;;;10.57;92.10;99864.66;5037302;28;20089;-81
2021/11/02 13:14:39;;;;;;;7.75;3.50;;;;;;;10.61;91.96;99871.22;5051882;28;20032;-81
2021/11/02 13:17:08;;;;;;;8.32;3.22;;;;;;;10.75;93.08;99869.69;5034908;28;20032;-81
2021/11/02 13:19:39;;;;;;;5.85;3.30;;;;;;;10.90;95.01;99868.00;5035353;28;20182;-82
2021/11/02 13:22:23;;;;;;;8.82;3.13;;;;;;;11.00;95.00;99871.25;5004174;28;20094;-81
2021/11/02 13:25:09;;;;;;;4.38;2.75;;;;;;;11.08;90.79;99868.56;5036982;28;20445;-80
2021/11/02 13:27:47;;;;;;;6.70;2.90;;;;;;;11.09;91.64;99870.22;5007453;28;20033;-80
2021/11/02 13:30:29;;;;;;;7.22;3.00;;;;;;;11.12;90.73;99874.31;5016271;28;20025;-80
2021/11/02 13:32:57;;;;;;;6.03;2.40;;;;;;;11.13;89.97;99869.88;5014818;28;20033;-82
2021/11/02 13:35:43;;;;;;;5.50;2.70;;;;;;;11.11;90.49;99872.66;5022777;28;20120;-82
2021/11/02 13:38:19;;;;;;;4.82;2.20;;;;;;;11.05;92.41;99874.16;5035290;28;20044;-82
2021/11/02 13:40:45;;;;;;;4.45;2.22;;;;;;;10.96;91.55;99869.94;5019078;28;20029;-82
2021/11/02 13:43:10;;;;;;;7.55;2.25;;;;;;;10.88;92.11;99862.09;5017951;28;20040;-83
2021/11/02 13:45:36;;;;;;;6.45;2.08;;;;;;;10.84;93.65;99876.56;5035855;28;20039;-84
2021/11/02 13:48:04;;;;;;;5.28;2.38;;;;;;;10.83;92.31;99867.03;5018744;28;20041;-83
2021/11/02 13:50:30;;;;;;;6.38;2.17;;;;;;;10.80;93.21;99870.00;5034525;28;20431;-82
2021/11/02 13:52:56;;;;;;;7.03;2.35;;;;;;;10.76;93.40;99866.91;5031187;28;20029;-83
2021/11/02 13:55:22;;;;;;;5.53;2.30;;;;;;;10.75;93.09;99869.69;5049319;28;20040;-82
2021/11/02 13:57:48;;;;;;;6.43;2.63;;;;;;;10.76;93.01;99877.41;5017150;28;20045;-82
2021/11/02 14:00:14;;;;;;;8.65;2.53;;;;;;;10.73;93.20;99875.09;5019344;28;20025;-82
2021/11/02 14:02:42;;;;;;;4.97;2.28;;;;;;;10.68;93.07;99886.13;5030791;28;20040;-82
2021/11/02 14:05:10;;;;;;;7.28;2.35;;;;;;;10.61;91.05;99881.72;5015759;28;20029;-82
2021/11/02 14:07:37;;;;;;;5.95;2.30;;;;;;;10.55;92.49;99871.88;5028561;28;20094;-82
2021/11/02 14:10:09;;;;;;;4.70;1.90;;;;;;;10.50;92.45;99877.63;5019212;28;20119;-81
2021/11/02 14:12:45;;;;;;;8.57;2.38;;;;;;;10.47;94.12;99881.41;5035780;28;20446;-81
2021/11/02 14:15:11;;;;;;;3.17;2.10;;;;;;;10.44;93.57;99873.88;5051553;28;20032;-82
2021/11/02 14:18:08;;;;;;;7.72;2.40;;;;;;;10.42;93.75;99875.03;5017724;28;20048;-82
2021/11/02 14:20:49;;;;;;;7.45;3.00;;;;;;;10.33;92.29;99868.97;5030864;28;20566;-82
2021/11/02 14:23:33;;;;;;;4.93;2.97;;;;;;;10.37;91.83;99875.50;4992967;28;20198;-80
2021/11/02 14:26:26;;;;;;;4.47;2.60;;;;;;;10.34;95.10;99878.47;5052210;28;20395;-82
2021/11/02 14:28:52;;;;;;;;;;;;;;;10.29;94.61;99886.00;5026355;28;20044;-81
2021/11/02 14:31:45;;;;;;;4.75;2.97;;;;;;;10.30;92.51;99875.38;5050719;28;20528;-81
2021/11/02 14:34:31;;;;;;;5.47;1.80;;;;;;;10.28;89.74;99879.94;4999209;28;20047;-80
2021/11/02 14:37:11;;;;;;;4.57;1.67;;;;;;;10.20;92.46;99885.16;5018247;28;20441;-80
2021/11/02 14:40:00;;;;;;;4.38;1.90;;;;;;;10.09;93.84;99886.31;5020208;28;20075;-81
2021/11/02 14:42:48;;;;;;;6.03;2.08;;;;;;;10.02;95.65;99887.13;5038654;28;20580;-82
2021/11/02 14:45:17;;;;;;;6.57;2.28;;;;;;;9.94;97.57;99882.72;5030003;28;20653;-80
2021/11/02 14:47:44;;;;;;;3.47;2.05;;;;;;;9.87;97.43;99885.19;5048228;28;20033;-81
2021/11/02 14:50:37;;;;;;;7.55;2.67;;;;;;;9.86;95.37;99896.63;5032417;28;20083;-80
2021/11/02 14:53:29;;;;;;;6.55;2.58;;;;;;;9.84;96.32;99895.97;5033897;28;20037;-80
2021/11/02 14:56:08;;;;;;;7.97;2.65;;;;;;;9.78;97.31;99895.81;5047859;28;20878;-80
2021/11/02 14:58:40;;;;;;;5.28;2.90;;;;;;;9.66;99.74;99895.28;5014936;28;20039;-80
2021/11/02 15:01:07;;;;;;;;;;;;;;;9.55;100.00;99894.63;5046500;28;20064;-80
2021/11/02 15:03:33;;;;;;;7.45;2.85;;;;;;;9.45;100.00;99890.50;5048052;28;19920;-79
2021/11/02 15:06:12;;;;;;;6.43;3.58;;;;;;;9.39;100.00;99889.34;5046455;28;20067;-83
2021/11/02 15:08:41;;;;;;;7.50;2.88;;;;;;;9.35;100.00;99898.50;5049915;28;20071;-81
2021/11/02 15:11:16;;;;;;;9.70;3.08;;;;;;;9.40;100.00;99898.00;5034807;28;20065;-79
2021/11/02 15:13:53;;;;;;;11.13;3.42;;;;;;;9.37;99.97;99893.09;5035635;28;20043;-81
2021/11/02 15:16:20;;;;;;;9.85;3.42;;;;;;;9.28;100.00;99894.88;5048474;28;20036;-81
2021/11/02 15:18:50;;;;;;;18.33;3.78;;;;;;;9.21;100.00;99896.47;5048921;28;20437;-80
2021/11/02 15:21:30;;;;;;;11.95;3.50;;;;;;;9.13;100.00;99899.88;5047911;28;21824;-82
2021/11/02 15:23:56;;;;;;;9.98;3.78;;;;;;;9.03;100.00;99891.34;5015475;28;20127;-81
2021/11/02 15:26:22;;;;;;;10.38;3.72;;;;;;;8.98;100.00;99886.56;5038558;28;20057;-80
2021/11/02 15:28:50;;;;;;;11.73;4.00;;;;;;;8.93;100.00;99891.47;5008587;28;20075;-81
2021/11/02 15:31:22;;;;;;;14.68;3.80;;;;;;;8.88;100.00;99896.34;5000610;28;20025;-79
2021/11/02 15:33:49;;;;;;;7.38;3.55;;;;;;;8.80;100.00;99885.81;5034510;28;20447;-82
2021/11/02 15:36:19;;;;;;;12.02;3.50;;;;;;;8.79;100.00;99890.25;5020310;28;20049;-82
2021/11/02 15:38:56;;;;;;;10.18;3.60;;;;;;;8.69;100.00;99892.16;5018835;28;20135;-79
2021/11/02 15:41:23;;;;;;;11.07;3.67;;;;;;;8.66;100.00;99888.03;5027731;28;20029;-79
2021/11/02 15:44:12;;;;;;;7.70;3.78;;;;;;;8.59;100.00;99892.28;5032506;28;20051;-79
2021/11/02 15:46:40;;;;;;;6.07;3.22;;;;;;;8.55;100.00;99890.91;5049384;28;20041;-80
2021/11/02 15:49:12;;;;;;;11.45;4.25;;;;;;;8.52;100.00;99899.09;5020845;28;20089;-81
2021/11/02 15:51:40;;;;;;;7.53;4.15;;;;;;;8.44;100.00;99897.25;5024909;28;20029;-80
2021/11/02 15:54:09;;;;;;;11.20;3.70;;;;;;;8.41;100.00;99900.13;5033516;28;20033;-80
2021/11/02 15:56:35;;;;;;;8.82;3.88;;;;;;;8.38;100.00;99903.88;5032302;28;20036;-79
2021/11/02 15:59:04;;;;;;;9.10;3.75;;;;;;;8.32;100.00;99893.19;5017242;28;20114;-80
2021/11/02 16:01:43;;;;;;;5.97;3.55;;;;;;;8.29;100.00;99891.72;5047325;28;20031;-80
2021/11/02 16:04:12;;;;;;;8.13;3.80;;;;;;;8.26;100.00;99899.84;5045915;28;20163;-81
2021/11/02 16:06:57;;;;;;;10.35;4.15;;;;;;;8.19;100.00;99907.50;5002821;28;20043;-81
2021/11/02 16:09:26;;;;;;;10.65;4.57;;;;;;;8.12;100.00;99901.22;5031625;28;20809;-80
2021/11/02 16:11:51;;;;;;;13.57;5.10;;;;;;;8.04;100.00;99902.94;5013058;28;20033;-80
2021/11/02 16:14:19;;;;;;;13.52;4.72;;;;;;;8.00;100.00;99902.41;5022109;28;20041;-79
2021/11/02 16:16:49;;;;;;;10.05;5.10;;;;;;;7.96;100.00;99909.72;5049465;28;20029;-80
2021/11/02 16:19:16;;;;;;;9.70;4.70;;;;;;;7.90;100.00;99906.91;5031978;28;20069;-81
2021/11/02 16:21:43;;;;;;;10.15;5.32;;;;;;;7.88;100.00;99911.47;5016817;28;20037;-80
2021/11/02 16:24:11;;;;;;;10.30;5.45;;;;;;;7.86;100.00;99910.78;5031730;28;20033;-82
2021/11/02 16:26:39;;;;;;;10.00;4.90;;;;;;;7.80;100.00;99910.41;5020754;28;20025;-78
2021/11/02 16:29:13;;;;;;;7.68;4.38;;;;;;;7.81;100.00;99913.84;5017302;28;20395;-81
2021/11/02 16:31:41;;;;;;;12.00;5.05;;;;;;;7.78;100.00;99906.31;5043386;28;20025;-80
2021/11/02 16:34:22;;;;;;;13.07;4.80;;;;;;;7.75;100.00;99911.81;5037064;28;20671;-80